createdAt,value
2023-03-06T00:00:21.784Z,21.08
2023-03-06T00:02:48.582Z,19.60
2023-03-06T00:05:16.120Z,19.55
2023-03-06T00:07:43.882Z,18.35
2023-03-06T00:10:16.279Z,20.17
2023-03-06T00:12:42.898Z,16.20
2023-03-06T00:15:10.744Z,18.15
2023-03-06T00:17:37.873Z,22.58
2023-03-06T00:20:05.892Z,19.50
2023-03-06T00:22:32.982Z,19.48
2023-03-06T00:24:59.785Z,24.92
2023-03-06T00:27:26.441Z,18.05
2023-03-06T00:29:57.656Z,24.25
2023-03-06T00:32:25.368Z,19.20
2023-03-06T00:34:53.620Z,16.65
2023-03-06T00:37:21.858Z,17.02
2023-03-06T00:39:49.618Z,19.23
2023-03-06T00:42:18.015Z,16.42
2023-03-06T00:44:45.249Z,16.85
2023-03-06T00:47:13.087Z,17.48
2023-03-06T00:49:39.652Z,24.77
2023-03-06T00:52:06.251Z,19.67
2023-03-06T00:54:32.845Z,17.00
2023-03-06T00:56:59.422Z,16.08
2023-03-06T00:59:27.605Z,17.70
2023-03-06T01:01:54.818Z,18.40
2023-03-06T01:04:21.632Z,17.92
2023-03-06T01:06:48.901Z,18.95
2023-03-06T01:09:15.554Z,14.25
2023-03-06T01:11:42.121Z,16.38
2023-03-06T01:14:08.760Z,18.55
2023-03-06T01:16:35.387Z,15.02
2023-03-06T01:19:02.146Z,17.35
2023-03-06T01:21:28.878Z,22.33
2023-03-06T01:23:55.494Z,20.42
2023-03-06T01:26:22.115Z,21.55
2023-03-06T01:28:48.771Z,16.50
2023-03-06T01:31:15.413Z,14.18
2023-03-06T01:33:42.026Z,14.35
2023-03-06T01:36:12.224Z,14.27
2023-03-06T01:38:39.173Z,12.90
2023-03-06T01:41:06.693Z,14.30
2023-03-06T01:43:36.700Z,15.38
2023-03-06T01:46:22.769Z,18.42
2023-03-06T01:48:53.670Z,18.23
2023-03-06T01:51:20.824Z,22.50
2023-03-06T01:53:50.496Z,20.52
2023-03-06T01:56:17.213Z,18.38
2023-03-06T01:58:44.780Z,14.65
2023-03-06T02:01:13.464Z,16.10
2023-03-06T02:03:42.284Z,20.67
2023-03-06T02:06:09.003Z,14.05
2023-03-06T02:08:35.788Z,17.88
2023-03-06T02:11:07.901Z,17.52
2023-03-06T02:13:36.396Z,16.63
2023-03-06T02:16:03.442Z,13.13
2023-03-06T02:18:31.758Z,17.38
2023-03-06T02:21:02.392Z,19.17
2023-03-06T02:23:34.028Z,15.93
2023-03-06T02:26:02.230Z,14.82
2023-03-06T02:28:29.003Z,20.95
2023-03-06T02:30:56.082Z,19.65
2023-03-06T02:33:27.132Z,15.57
2023-03-06T02:35:58.626Z,20.40
2023-03-06T02:38:29.250Z,17.63
2023-03-06T02:40:58.132Z,22.95
2023-03-06T02:43:29.522Z,14.60
2023-03-06T02:45:56.205Z,17.63
2023-03-06T02:48:22.861Z,17.92
2023-03-06T02:50:49.534Z,16.73
2023-03-06T02:53:18.122Z,14.10
2023-03-06T02:55:45.458Z,16.13
2023-03-06T02:58:12.650Z,15.82
2023-03-06T03:00:40.294Z,17.33
2023-03-06T03:03:07.557Z,18.17
2023-03-06T03:05:34.196Z,19.90
2023-03-06T03:08:01.064Z,15.68
2023-03-06T03:10:27.691Z,15.10
2023-03-06T03:12:54.300Z,14.85
2023-03-06T03:15:24.149Z,20.35
2023-03-06T03:17:50.974Z,17.38
2023-03-06T03:20:20.195Z,26.17
2023-03-06T03:22:52.316Z,17.20
2023-03-06T03:25:21.789Z,18.50
2023-03-06T03:27:48.717Z,20.45
2023-03-06T03:30:15.974Z,23.88
2023-03-06T03:32:42.578Z,22.42
2023-03-06T03:35:11.181Z,21.25
2023-03-06T03:37:38.135Z,18.80
2023-03-06T03:40:06.850Z,22.60
2023-03-06T03:42:34.552Z,18.10
2023-03-06T03:45:01.134Z,18.65
2023-03-06T03:47:27.809Z,15.75
2023-03-06T03:49:54.385Z,21.65
2023-03-06T03:52:21.076Z,17.25
2023-03-06T03:54:47.662Z,21.85
2023-03-06T03:57:14.257Z,27.33
2023-03-06T03:59:40.889Z,22.48
2023-03-06T04:02:07.528Z,21.92
2023-03-06T04:04:34.183Z,24.75
2023-03-06T04:07:00.842Z,21.27
2023-03-06T04:09:27.625Z,23.27
2023-03-06T04:11:54.296Z,17.27
2023-03-06T04:14:20.914Z,20.65
2023-03-06T04:16:47.607Z,24.40
2023-03-06T04:19:14.225Z,21.35
2023-03-06T04:21:40.802Z,22.50
2023-03-06T04:24:07.966Z,21.92
2023-03-06T04:26:37.837Z,21.15
2023-03-06T04:29:04.458Z,17.00
2023-03-06T04:31:31.138Z,18.88
2023-03-06T04:33:57.756Z,69.28
2023-03-06T04:36:30.884Z,28.00
2023-03-06T04:38:58.067Z,25.88
2023-03-06T04:41:24.747Z,18.40
2023-03-06T04:43:51.843Z,20.23
2023-03-06T04:46:18.540Z,19.10
2023-03-06T04:48:45.184Z,22.45
2023-03-06T04:51:13.582Z,18.67
2023-03-06T04:53:40.307Z,23.90
2023-03-06T04:56:07.304Z,24.58
2023-03-06T04:58:33.929Z,16.90
2023-03-06T05:01:00.600Z,20.52
2023-03-06T05:03:27.358Z,19.92
2023-03-06T05:05:53.978Z,22.88
2023-03-06T05:08:21.190Z,19.63
2023-03-06T05:10:54.817Z,22.25
2023-03-06T05:13:21.562Z,19.23
2023-03-06T05:15:48.174Z,13.50
2023-03-06T05:18:14.805Z,21.25
2023-03-06T05:20:41.404Z,20.48
2023-03-06T05:23:08.081Z,21.85
2023-03-06T05:25:34.695Z,23.23
2023-03-06T05:28:01.314Z,21.05
2023-03-06T05:30:27.954Z,21.80
2023-03-06T05:32:54.640Z,29.40
2023-03-06T05:35:23.328Z,29.35
2023-03-06T05:37:50.294Z,17.75
2023-03-06T05:40:18.176Z,17.67
2023-03-06T05:42:45.268Z,21.98
2023-03-06T05:45:12.120Z,25.42
2023-03-06T05:47:38.693Z,22.83
2023-03-06T05:50:08.040Z,18.80
2023-03-06T05:52:34.657Z,22.92
2023-03-06T05:55:01.293Z,26.58
2023-03-06T05:57:27.914Z,24.05
2023-03-06T05:59:54.650Z,28.83
2023-03-06T06:02:21.455Z,26.27
2023-03-06T06:04:48.286Z,30.15
2023-03-06T06:07:17.032Z,29.88
2023-03-06T06:09:45.592Z,32.45
2023-03-06T06:12:13.291Z,25.75
2023-03-06T06:14:39.998Z,29.60
2023-03-06T06:17:07.105Z,21.17
2023-03-06T06:19:33.767Z,25.10
2023-03-06T06:22:02.649Z,23.58
2023-03-06T06:24:29.853Z,29.38
2023-03-06T06:26:58.129Z,30.20
2023-03-06T06:29:26.122Z,15.40
2023-03-06T06:31:53.134Z,25.48
2023-03-06T06:34:20.343Z,26.40
2023-03-06T06:36:47.447Z,19.38
2023-03-06T06:39:16.515Z,26.75
2023-03-06T06:41:57.575Z,36.08
2023-03-06T06:44:29.124Z,25.53
2023-03-06T06:49:42.319Z,22.73
2023-03-06T06:52:09.100Z,24.42
2023-03-06T06:54:35.725Z,22.90
2023-03-06T06:57:02.316Z,24.55
2023-03-06T06:59:28.905Z,27.20
2023-03-06T07:01:55.475Z,26.75
2023-03-06T07:04:22.244Z,24.70
2023-03-06T07:06:48.835Z,26.17
2023-03-06T07:09:15.401Z,21.48
2023-03-06T07:11:42.003Z,19.67
2023-03-06T07:14:09.024Z,26.50
2023-03-06T07:16:38.859Z,26.98
2023-03-06T07:19:06.304Z,25.25
2023-03-06T07:21:33.250Z,30.50
2023-03-06T07:24:00.816Z,24.55
2023-03-06T07:26:28.420Z,24.35
2023-03-06T07:28:55.438Z,23.60
2023-03-06T07:31:24.740Z,24.80
2023-03-06T07:33:52.689Z,26.13
2023-03-06T07:36:20.484Z,22.48
2023-03-06T07:38:47.245Z,28.75
2023-03-06T07:41:16.379Z,28.77
2023-03-06T07:43:44.992Z,31.65
2023-03-06T07:46:13.135Z,34.83
2023-03-06T07:48:40.525Z,32.50
2023-03-06T07:51:16.049Z,29.40
2023-03-06T07:53:42.668Z,32.00
2023-03-06T07:56:11.089Z,26.60
2023-03-06T07:58:39.468Z,28.02
2023-03-06T08:01:10.442Z,38.83
2023-03-06T08:03:37.615Z,36.40
2023-03-06T08:06:07.593Z,31.30
2023-03-06T08:08:35.535Z,32.78
2023-03-06T08:11:02.329Z,33.05
2023-03-06T08:13:28.982Z,28.15
2023-03-06T08:15:56.740Z,32.80
2023-03-06T08:18:23.431Z,31.42
2023-03-06T08:20:50.083Z,32.63
2023-03-06T08:23:16.692Z,33.92
2023-03-06T08:25:43.298Z,35.75
2023-03-06T08:28:13.098Z,31.45
2023-03-06T08:30:39.709Z,28.63
2023-03-06T08:33:06.298Z,30.75
2023-03-06T08:35:32.944Z,35.65
2023-03-06T08:37:59.585Z,28.80
2023-03-06T08:40:30.398Z,28.50
2023-03-06T08:42:56.990Z,37.10
2023-03-06T08:45:23.754Z,35.47
2023-03-06T08:47:50.369Z,33.47
2023-03-06T08:50:17.228Z,33.08
2023-03-06T08:52:43.835Z,36.38
2023-03-06T08:55:10.820Z,31.30
2023-03-06T08:57:37.411Z,29.23
2023-03-06T09:00:08.872Z,29.38
2023-03-06T09:02:35.665Z,34.17
2023-03-06T09:05:05.841Z,33.13
2023-03-06T09:07:32.453Z,26.50
2023-03-06T09:09:59.235Z,31.85
2023-03-06T09:12:27.241Z,33.83
2023-03-06T09:14:54.729Z,33.85
2023-03-06T09:17:21.361Z,33.42
2023-03-06T09:19:48.005Z,31.73
2023-03-06T09:22:14.582Z,30.73
2023-03-06T09:24:41.542Z,34.42
2023-03-06T09:27:08.144Z,33.55
2023-03-06T09:29:34.718Z,34.22
2023-03-06T09:32:01.324Z,35.35
2023-03-06T09:34:27.998Z,39.28
2023-03-06T09:36:57.200Z,34.47
2023-03-06T09:39:26.174Z,33.35
2023-03-06T09:41:53.906Z,33.10
2023-03-06T09:44:26.058Z,35.88
2023-03-06T09:47:19.655Z,29.60
2023-03-06T09:50:15.756Z,37.95
2023-03-06T09:53:15.396Z,28.88
2023-03-06T09:55:44.203Z,31.77
2023-03-06T09:58:21.131Z,36.40
2023-03-06T10:01:20.464Z,29.40
2023-03-06T10:03:52.939Z,33.97
2023-03-06T10:06:39.611Z,26.67
2023-03-06T10:09:13.548Z,34.90
2023-03-06T10:12:06.665Z,41.72
2023-03-06T10:14:48.462Z,30.83
2023-03-06T10:17:22.535Z,29.90
2023-03-06T10:19:49.840Z,29.35
2023-03-06T10:22:30.756Z,29.92
2023-03-06T10:25:28.104Z,35.40
2023-03-06T10:30:23.185Z,31.13
2023-03-06T10:33:07.534Z,26.70
2023-03-06T10:35:51.721Z,30.92
2023-03-06T10:38:37.839Z,35.45
2023-03-06T10:41:16.942Z,35.65
2023-03-06T10:44:05.506Z,30.67
2023-03-06T10:46:36.414Z,35.95
2023-03-06T10:49:06.120Z,34.30
2023-03-06T10:51:34.272Z,29.33
2023-03-06T10:54:04.428Z,31.80
2023-03-06T10:56:35.099Z,29.42
2023-03-06T10:59:18.082Z,34.22
2023-03-06T11:01:47.616Z,32.70
2023-03-06T11:04:15.205Z,31.17
2023-03-06T11:06:42.076Z,32.10
2023-03-06T11:09:25.808Z,34.05
2023-03-06T11:12:08.894Z,35.03
2023-03-06T11:14:35.486Z,34.65
2023-03-06T11:17:05.359Z,35.58
2023-03-06T11:19:32.983Z,34.78
2023-03-06T11:22:02.801Z,38.45
2023-03-06T11:24:37.467Z,27.98
2023-03-06T11:27:22.254Z,34.42
2023-03-06T11:29:51.699Z,29.00
2023-03-06T11:32:22.544Z,35.58
2023-03-06T11:34:58.065Z,36.95
2023-03-06T11:37:33.735Z,32.88
2023-03-06T11:40:01.359Z,44.53
2023-03-06T11:42:38.245Z,36.08
2023-03-06T11:45:24.953Z,33.20
2023-03-06T11:48:20.105Z,37.13
2023-03-06T11:50:52.565Z,32.20
2023-03-06T11:53:23.118Z,38.55
2023-03-06T11:56:14.880Z,32.60
2023-03-06T11:58:58.147Z,36.55
2023-03-06T12:01:36.802Z,34.47
2023-03-06T12:04:23.357Z,34.58
2023-03-06T12:06:57.859Z,38.42
2023-03-06T12:09:36.090Z,34.72
2023-03-06T12:12:14.808Z,32.78
2023-03-06T12:14:56.787Z,33.83
2023-03-06T12:18:03.177Z,34.60
2023-03-06T12:20:31.798Z,40.05
2023-03-06T12:23:26.724Z,29.42
2023-03-06T12:26:21.184Z,30.40
2023-03-06T12:29:07.385Z,32.20
2023-03-06T12:32:09.344Z,31.40
2023-03-06T12:35:05.879Z,28.42
2023-03-06T12:38:02.339Z,39.35
2023-03-06T12:40:58.571Z,32.95
2023-03-06T12:43:40.351Z,34.15
2023-03-06T12:46:16.032Z,35.00
2023-03-06T12:48:48.793Z,36.80
2023-03-06T12:51:20.457Z,33.20
2023-03-06T12:53:49.910Z,33.60
2023-03-06T12:56:18.450Z,33.92
2023-03-06T12:58:51.010Z,30.70
2023-03-06T13:01:38.247Z,34.97
2023-03-06T13:04:35.522Z,36.97
2023-03-06T13:07:17.305Z,34.45
2023-03-06T13:09:59.149Z,37.97
2023-03-06T13:12:56.344Z,38.75
2023-03-06T13:15:41.286Z,37.05
2023-03-06T13:18:23.044Z,32.00
2023-03-06T13:20:51.679Z,32.03
2023-03-06T13:23:33.584Z,37.33
2023-03-06T13:26:08.609Z,33.03
2023-03-06T13:28:52.206Z,46.03
2023-03-06T13:31:34.156Z,34.85
2023-03-06T13:34:31.413Z,34.17
2023-03-06T13:37:33.368Z,39.92
2023-03-06T13:39:59.923Z,35.63
2023-03-06T13:42:28.978Z,32.58
2023-03-06T13:44:58.023Z,34.63
2023-03-06T13:47:26.622Z,29.67
2023-03-06T13:49:53.283Z,31.60
2023-03-06T13:52:38.221Z,31.08
2023-03-06T13:55:22.900Z,29.00
2023-03-06T13:57:59.992Z,35.75
2023-03-06T14:00:43.130Z,35.70
2023-03-06T14:03:10.781Z,30.92
2023-03-06T14:05:47.758Z,35.13
2023-03-06T14:08:19.368Z,36.10
2023-03-06T14:10:49.025Z,36.63
2023-03-06T14:13:23.656Z,32.88
2023-03-06T14:15:52.816Z,31.65
2023-03-06T14:18:23.781Z,31.65
2023-03-06T14:21:11.792Z,37.92
2023-03-06T14:23:44.918Z,35.05
2023-03-06T14:26:15.579Z,33.92
2023-03-06T14:28:45.258Z,35.30
2023-03-06T14:31:17.859Z,37.20
2023-03-06T14:33:54.706Z,32.58
2023-03-06T14:36:25.627Z,33.03
2023-03-06T14:38:59.285Z,31.92
2023-03-06T14:41:29.408Z,38.60
2023-03-06T14:44:20.534Z,35.05
2023-03-06T14:46:49.927Z,32.22
2023-03-06T14:49:19.047Z,37.28
2023-03-06T14:51:50.252Z,34.05
2023-03-06T14:54:26.441Z,38.05
2023-03-06T14:57:01.537Z,37.25
2023-03-06T14:59:31.166Z,39.67
2023-03-06T15:02:01.512Z,35.42
2023-03-06T15:04:36.604Z,39.53
2023-03-06T15:07:08.300Z,38.53
2023-03-06T15:09:37.219Z,42.65
2023-03-06T15:12:08.518Z,33.88
2023-03-06T15:14:38.774Z,33.53
2023-03-06T15:17:32.785Z,41.22
2023-03-06T15:20:00.674Z,37.00
2023-03-06T15:22:33.309Z,37.47
2023-03-06T15:25:16.199Z,38.83
2023-03-06T15:27:49.837Z,46.38
2023-03-06T15:30:26.689Z,42.85
2023-03-06T15:33:09.606Z,44.53
2023-03-06T15:35:38.236Z,38.53
2023-03-06T15:38:24.937Z,34.00
2023-03-06T15:40:57.204Z,47.33
2023-03-06T15:43:23.810Z,45.20
2023-03-06T15:45:53.339Z,40.72
2023-03-06T15:48:20.018Z,39.83
2023-03-06T15:50:46.735Z,44.83
2023-03-06T15:53:13.406Z,36.80
2023-03-06T15:55:40.187Z,39.42
2023-03-06T15:58:06.800Z,43.58
2023-03-06T16:00:36.840Z,45.08
2023-03-06T16:03:04.410Z,41.15
2023-03-06T16:05:31.520Z,41.08
2023-03-06T16:07:58.324Z,36.10
2023-03-06T16:10:29.001Z,38.90
2023-03-06T16:13:03.046Z,42.20
2023-03-06T16:15:33.158Z,43.55
2023-03-06T16:18:00.393Z,40.38
2023-03-06T16:20:28.530Z,42.67
2023-03-06T16:22:56.331Z,42.42
2023-03-06T16:25:25.468Z,39.38
2023-03-06T16:28:01.658Z,40.30
2023-03-06T16:30:34.328Z,39.17
2023-03-06T16:33:01.988Z,39.65
2023-03-06T16:35:28.861Z,38.58
2023-03-06T16:37:55.529Z,41.25
2023-03-06T16:40:25.517Z,38.45
2023-03-06T16:42:54.069Z,38.33
2023-03-06T16:45:23.037Z,38.25
2023-03-06T16:47:49.649Z,38.92
2023-03-06T16:50:33.226Z,41.60
2023-03-06T16:52:59.937Z,43.58
2023-03-06T16:55:27.907Z,43.05
2023-03-06T16:57:54.789Z,38.92
2023-03-06T17:00:24.600Z,39.40
2023-03-06T17:02:52.372Z,45.00
2023-03-06T17:05:19.947Z,44.22
2023-03-06T17:07:46.824Z,39.70
2023-03-06T17:10:16.091Z,42.20
2023-03-06T17:12:43.648Z,49.15
2023-03-06T17:15:11.439Z,43.38
2023-03-06T17:17:38.108Z,44.50
2023-03-06T17:20:08.097Z,44.10
2023-03-06T17:22:35.860Z,46.38
2023-03-06T17:25:03.577Z,43.00
2023-03-06T17:27:30.239Z,44.28
2023-03-06T17:29:57.982Z,40.60
2023-03-06T17:32:24.796Z,46.83
2023-03-06T17:34:51.449Z,46.50
2023-03-06T17:37:18.353Z,45.33
2023-03-06T17:39:45.045Z,42.42
2023-03-06T17:42:11.616Z,37.60
2023-03-06T17:44:38.892Z,37.35
2023-03-06T17:47:05.997Z,42.75
2023-03-06T17:49:32.600Z,44.33
2023-03-06T17:52:02.799Z,42.33
2023-03-06T17:54:30.179Z,38.63
2023-03-06T17:57:01.054Z,45.40
2023-03-06T17:59:28.301Z,46.28
2023-03-06T18:01:57.677Z,45.15
2023-03-06T18:04:24.767Z,59.70
2023-03-06T18:06:51.392Z,57.80
2023-03-06T18:09:18.240Z,54.35
2023-03-06T18:11:45.368Z,60.58
2023-03-06T18:14:12.025Z,62.67
2023-03-06T18:16:38.821Z,56.78
2023-03-06T18:19:05.477Z,54.47
2023-03-06T18:21:32.089Z,42.08
2023-03-06T18:23:58.769Z,42.63
2023-03-06T18:26:28.167Z,48.90
2023-03-06T18:28:58.553Z,46.13
2023-03-06T18:31:31.734Z,48.92
2023-03-06T18:34:02.034Z,43.55
2023-03-06T18:36:31.870Z,46.55
2023-03-06T18:38:59.564Z,43.63
2023-03-06T18:41:26.436Z,41.35
2023-03-06T18:43:55.413Z,43.55
2023-03-06T18:46:23.298Z,42.13
2023-03-06T18:48:50.398Z,46.83
2023-03-06T18:51:17.878Z,38.75
2023-03-06T18:53:44.720Z,45.13
2023-03-06T18:56:17.882Z,44.83
2023-03-06T18:58:45.056Z,46.35
2023-03-06T19:01:12.197Z,40.30
2023-03-06T19:03:38.864Z,40.50
2023-03-06T19:06:07.907Z,38.50
2023-03-06T19:08:35.944Z,50.78
2023-03-06T19:11:05.825Z,43.22
2023-03-06T19:13:32.466Z,38.45
2023-03-06T19:15:59.406Z,46.92
2023-03-06T19:18:30.737Z,47.47
2023-03-06T19:21:17.433Z,50.15
2023-03-06T19:23:44.203Z,54.03
2023-03-06T19:26:12.284Z,62.40
2023-03-06T19:28:41.158Z,50.95
2023-03-06T19:31:10.945Z,56.47
2023-03-06T19:33:40.239Z,45.78
2023-03-06T19:36:10.540Z,42.20
2023-03-06T19:38:38.535Z,40.55
2023-03-06T19:41:06.512Z,39.65
2023-03-06T19:43:33.650Z,45.03
2023-03-06T19:46:01.702Z,50.92
2023-03-06T19:48:32.851Z,44.22
2023-03-06T19:51:04.813Z,45.47
2023-03-06T19:53:33.357Z,51.17
2023-03-06T19:56:09.203Z,52.50
2023-03-06T19:58:37.076Z,41.22
2023-03-06T20:01:06.882Z,43.75
2023-03-06T20:03:34.536Z,49.47
2023-03-06T20:06:03.216Z,38.55
2023-03-06T20:08:30.376Z,47.53
2023-03-06T20:10:57.127Z,39.17
2023-03-06T20:13:24.481Z,46.17
2023-03-06T20:15:52.423Z,47.75
2023-03-06T20:18:19.631Z,39.60
2023-03-06T20:20:57.313Z,40.60
2023-03-06T20:23:24.499Z,49.90
2023-03-06T20:25:51.391Z,44.40
2023-03-06T20:28:18.932Z,48.58
2023-03-06T20:30:49.750Z,43.53
2023-03-06T20:33:17.109Z,48.85
2023-03-06T20:35:44.709Z,47.17
2023-03-06T20:38:12.344Z,47.95
2023-03-06T20:40:41.328Z,46.75
2023-03-06T20:43:09.113Z,47.65
2023-03-06T20:45:36.401Z,44.42
2023-03-06T20:48:03.764Z,47.75
2023-03-06T20:50:31.070Z,46.50
2023-03-06T20:52:59.145Z,49.08
2023-03-06T20:55:25.869Z,44.17
2023-03-06T20:57:53.859Z,46.45
2023-03-06T21:00:21.567Z,50.85
2023-03-06T21:02:48.423Z,53.22
2023-03-06T21:05:15.839Z,56.97
2023-03-06T21:07:42.781Z,44.35
2023-03-06T21:10:12.069Z,50.28
2023-03-06T21:12:38.892Z,46.45
2023-03-06T21:15:06.505Z,49.05
2023-03-06T21:17:34.162Z,52.38
2023-03-06T21:20:01.032Z,49.80
2023-03-06T21:22:30.260Z,50.45
2023-03-06T21:24:58.584Z,45.38
2023-03-06T21:27:26.385Z,48.60
2023-03-06T21:29:54.009Z,43.05
2023-03-06T21:32:22.085Z,43.20
2023-03-06T21:34:49.199Z,41.05
2023-03-06T21:37:17.069Z,46.25
2023-03-06T21:39:44.585Z,40.10
2023-03-06T21:42:12.043Z,40.03
2023-03-06T21:44:39.732Z,45.90
2023-03-06T21:47:06.671Z,44.92
2023-03-06T21:49:33.285Z,56.90
2023-03-06T21:51:59.926Z,44.00
2023-03-06T21:54:27.117Z,56.72
2023-03-06T21:56:53.773Z,59.58
2023-03-06T21:59:20.374Z,53.42
2023-03-06T22:01:47.639Z,41.58
2023-03-06T22:04:14.506Z,44.83
2023-03-06T22:06:41.235Z,48.70
2023-03-06T22:09:08.562Z,44.40
2023-03-06T22:11:37.281Z,39.00
2023-03-06T22:14:05.680Z,41.25
2023-03-06T22:16:32.794Z,40.00
2023-03-06T22:19:00.596Z,42.03
2023-03-06T22:21:27.292Z,42.25
2023-03-06T22:23:57.779Z,37.63
2023-03-06T22:26:26.076Z,40.10
2023-03-06T22:28:53.324Z,42.47
2023-03-06T22:31:25.736Z,39.72
2023-03-06T22:33:53.722Z,41.35
2023-03-06T22:36:21.094Z,42.85
2023-03-06T22:38:48.706Z,39.05
2023-03-06T22:41:17.294Z,37.17
2023-03-06T22:43:44.005Z,40.10
2023-03-06T22:46:13.587Z,45.55
2023-03-06T22:48:40.879Z,38.58
2023-03-06T22:51:09.388Z,44.13
2023-03-06T22:53:36.779Z,36.25
2023-03-06T22:56:05.333Z,51.08
2023-03-06T22:58:36.932Z,40.67
2023-03-06T23:01:04.912Z,44.97
2023-03-06T23:03:31.626Z,39.75
2023-03-06T23:05:58.323Z,39.47
2023-03-06T23:08:24.968Z,43.03
2023-03-06T23:10:51.569Z,46.88
2023-03-06T23:13:18.160Z,46.05
2023-03-06T23:15:44.750Z,42.45
2023-03-06T23:18:11.351Z,46.25
2023-03-06T23:20:42.577Z,41.80
2023-03-06T23:23:09.822Z,49.42
2023-03-06T23:25:36.861Z,52.83
2023-03-06T23:28:03.696Z,42.42
2023-03-06T23:30:30.314Z,39.90
2023-03-06T23:32:57.051Z,41.38
2023-03-06T23:35:23.631Z,41.15
2023-03-06T23:37:50.323Z,41.00
2023-03-06T23:40:17.149Z,36.97
2023-03-06T23:42:43.745Z,42.83
2023-03-06T23:45:10.908Z,40.83
2023-03-06T23:47:37.522Z,35.65
2023-03-06T23:50:04.457Z,43.38
2023-03-06T23:52:31.118Z,36.17
2023-03-06T23:54:57.710Z,33.67
2023-03-06T23:57:24.314Z,33.17
2023-03-06T23:59:50.938Z,37.10
